Time;durP1;ratioP1;P1;durP2;ratioP2;P2;SDS_P1;SDS_P2;PMS_P1;PMS_P2;Temp;Humidity;BMP_temperature;BMP_pressure;BME280_temperature;BME280_humidity;BME280_pressure;Samples;Min_cycle;Max_cycle;Signal;HPM_P1;HPM_P2
2021/07/05 00:00:18;;;;;;;17.80;13.45;;;;;;;20.32;100.00;98648.97;3474211;28;20087;-43
2021/07/05 00:01:59;;;;;;;;;;;;;;;20.32;100.00;98646.34;3470949;28;20514;-44
2021/07/05 00:03:41;;;;;;;20.83;15.30;;;;;;;20.31;100.00;98649.91;3472429;28;20378;-44
2021/07/05 00:05:22;;;;;;;16.25;12.57;;;;;;;20.30;100.00;98650.81;3470564;28;20046;-44
2021/07/05 00:07:04;;;;;;;17.50;13.70;;;;;;;20.29;100.00;98649.13;3472642;28;20107;-44
2021/07/05 00:08:46;;;;;;;18.85;13.52;;;;;;;20.28;100.00;98656.16;3470692;28;20079;-43
2021/07/05 00:10:28;;;;;;;21.80;14.68;;;;;;;20.28;100.00;98655.28;3482153;28;20143;-44
2021/07/05 00:12:10;;;;;;;21.98;13.88;;;;;;;20.28;100.00;98653.50;3479623;28;20081;-44
2021/07/05 00:13:52;;;;;;;19.63;14.18;;;;;;;20.28;100.00;98652.66;3484379;28;20080;-44
2021/07/05 00:15:34;;;;;;;22.17;15.13;;;;;;;20.27;100.00;98654.44;3478434;28;20171;-44
2021/07/05 00:17:16;;;;;;;20.42;14.48;;;;;;;20.25;100.00;98656.28;3483064;28;20049;-44
2021/07/05 00:18:57;;;;;;;20.25;14.82;;;;;;;20.25;100.00;98658.06;3472007;28;20155;-44
2021/07/05 00:20:41;;;;;;;18.25;13.82;;;;;;;20.23;100.00;98649.38;3470586;28;20076;-44
2021/07/05 00:22:22;;;;;;;20.90;14.07;;;;;;;20.24;100.00;98651.09;3482338;28;20060;-44
2021/07/05 00:24:04;;;;;;;16.70;12.88;;;;;;;20.26;100.00;98649.25;3477442;28;20152;-44
2021/07/05 00:25:45;;;;;;;15.02;12.85;;;;;;;20.27;100.00;98646.53;3470339;28;20084;-44
2021/07/05 00:27:26;;;;;;;14.88;12.15;;;;;;;20.29;100.00;98644.69;3476810;28;20524;-44
2021/07/05 00:29:08;;;;;;;14.27;11.77;;;;;;;20.31;100.00;98637.59;3483451;28;20049;-44
2021/07/05 00:30:50;;;;;;;15.75;11.25;;;;;;;20.34;100.00;98639.22;3473403;28;20111;-44
2021/07/05 00:32:31;;;;;;;14.98;11.82;;;;;;;20.36;100.00;98637.41;3470814;28;20049;-44
2021/07/05 00:34:12;;;;;;;15.07;10.60;;;;;;;20.39;100.00;98633.75;3471274;28;20593;-44
2021/07/05 00:35:54;;;;;;;13.77;11.18;;;;;;;20.41;100.00;98632.78;3473170;28;20049;-44
2021/07/05 00:37:35;;;;;;;18.65;10.80;;;;;;;20.43;100.00;98641.47;3483838;28;20076;-44
2021/07/05 00:39:17;;;;;;;14.95;10.52;;;;;;;20.46;100.00;98643.13;3476431;28;20536;-44
2021/07/05 00:40:58;;;;;;;16.85;10.32;;;;;;;20.47;100.00;98640.41;3470165;28;20050;-43
2021/07/05 00:42:40;;;;;;;13.68;10.55;;;;;;;20.48;100.00;98644.78;3473171;28;20092;-44
2021/07/05 00:44:23;;;;;;;15.35;10.20;;;;;;;20.49;100.00;98640.34;3472211;28;20049;-43
2021/07/05 00:46:05;;;;;;;15.45;10.05;;;;;;;20.50;100.00;98635.03;3471227;28;20564;-43
2021/07/05 00:47:46;;;;;;;12.25;9.38;;;;;;;20.52;100.00;98630.53;3473043;28;20041;-44
2021/07/05 00:49:28;;;;;;;11.68;10.05;;;;;;;20.54;100.00;98632.25;3483604;28;20072;-44
2021/07/05 00:51:18;;;;;;;12.65;9.93;;;;;;;20.54;100.00;98627.00;3478222;28;20053;-45
2021/07/05 00:53:01;;;;;;;15.95;10.02;;;;;;;20.55;100.00;98631.31;3476209;28;20132;-43
2021/07/05 00:54:43;;;;;;;12.00;9.13;;;;;;;20.55;100.00;98624.25;3480494;28;20481;-44
2021/07/05 00:56:24;;;;;;;11.50;9.25;;;;;;;20.56;100.00;98620.72;3479908;28;20083;-44
2021/07/05 00:58:06;;;;;;;10.90;9.40;;;;;;;20.56;100.00;98622.50;3483160;28;20083;-44
2021/07/05 00:59:49;;;;;;;10.25;9.02;;;;;;;20.57;100.00;98627.72;3479225;28;20068;-44
2021/07/05 01:01:30;;;;;;;13.27;9.10;;;;;;;20.57;100.00;98627.72;3483735;28;20083;-44
2021/07/05 01:03:12;;;;;;;12.60;9.50;;;;;;;20.57;100.00;98627.72;3479075;28;20064;-44
2021/07/05 01:04:54;;;;;;;11.40;9.23;;;;;;;20.57;100.00;98626.84;3482594;28;20049;-44
2021/07/05 01:06:35;;;;;;;13.63;9.60;;;;;;;20.58;100.00;98632.03;3479583;28;20505;-44
2021/07/05 01:08:17;;;;;;;12.20;9.23;;;;;;;20.57;100.00;98625.06;3479502;28;20490;-44
2021/07/05 01:09:58;;;;;;;10.40;8.57;;;;;;;20.58;100.00;98621.50;3483379;28;20076;-44
2021/07/05 01:11:39;;;;;;;10.95;9.00;;;;;;;20.58;100.00;98625.91;3475856;28;20087;-44
2021/07/05 01:13:21;;;;;;;12.05;8.60;;;;;;;20.57;100.00;98627.72;3469822;28;20049;-44
2021/07/05 01:15:04;;;;;;;10.73;9.40;;;;;;;20.57;100.00;98621.56;3477650;28;20178;-44
2021/07/05 01:16:45;;;;;;;12.10;9.38;;;;;;;20.55;100.00;98624.25;3481190;28;20087;-44
2021/07/05 01:18:27;;;;;;;11.48;8.95;;;;;;;20.54;100.00;98622.56;3471107;28;20061;-44
2021/07/05 01:20:11;;;;;;;14.98;9.23;;;;;;;20.54;100.00;98621.72;3471335;28;20084;-44
2021/07/05 01:21:53;;;;;;;;;;;;;;;20.52;100.00;98617.34;3482837;28;20060;-44
2021/07/05 01:23:34;;;;;;;12.07;8.60;;;;;;;20.52;100.00;98629.69;3478776;28;20385;-44
2021/07/05 01:25:18;;;;;;;11.90;8.65;;;;;;;20.52;100.00;98621.78;3483046;28;20053;-44
2021/07/05 01:26:59;;;;;;;;;;;;;;;20.52;100.00;98621.78;3479708;28;20167;-47
2021/07/05 01:28:40;;;;;;;11.00;9.52;;;;;;;20.50;100.00;98621.84;3481900;28;19975;-44
2021/07/05 01:30:23;;;;;;;11.60;8.18;;;;;;;20.50;100.00;98624.47;3470196;28;20495;-44
2021/07/05 01:32:06;;;;;;;13.70;8.50;;;;;;;20.50;100.00;98628.88;3471003;28;20079;-44
2021/07/05 01:33:47;;;;;;;10.65;9.38;;;;;;;20.50;100.00;98627.13;3483175;28;20516;-44
2021/07/05 01:35:29;;;;;;;14.18;8.85;;;;;;;20.48;100.00;98631.59;3478843;28;20048;-44
2021/07/05 01:37:11;;;;;;;10.40;9.10;;;;;;;20.49;100.00;98629.81;3483372;28;20230;-44
2021/07/05 01:38:53;;;;;;;13.07;8.70;;;;;;;20.48;100.00;98628.09;3478881;28;20502;-44
2021/07/05 01:40:35;;;;;;;11.40;8.93;;;;;;;20.46;100.00;98627.31;3481490;28;20076;-44
2021/07/05 01:42:19;;;;;;;12.27;9.10;;;;;;;20.46;100.00;98629.94;3469745;28;20543;-44
2021/07/05 01:44:00;;;;;;;11.27;9.68;;;;;;;20.45;100.00;98629.09;3475753;28;20475;-43
2021/07/05 01:45:42;;;;;;;9.95;8.75;;;;;;;20.45;100.00;98628.25;3483168;28;20057;-44
2021/07/05 01:47:23;;;;;;;10.90;8.82;;;;;;;20.45;100.00;98626.47;3478493;28;20510;-44
2021/07/05 01:49:04;;;;;;;13.15;9.38;;;;;;;20.44;100.00;98627.38;3481478;28;20084;-44
2021/07/05 01:50:46;;;;;;;12.82;9.45;;;;;;;20.44;100.00;98635.28;3479570;28;20107;-44
2021/07/05 01:52:28;;;;;;;11.55;9.25;;;;;;;20.43;100.00;98633.56;3478164;28;20049;-44
2021/07/05 01:54:13;;;;;;;14.73;9.43;;;;;;;20.42;100.00;98639.75;3482298;28;20067;-44
2021/07/05 01:55:54;;;;;;;11.43;9.88;;;;;;;20.41;100.00;98638.06;3478769;28;20137;-45
2021/07/05 01:57:37;;;;;;;12.93;9.73;;;;;;;20.40;100.00;98636.34;3483107;28;20059;-44
2021/07/05 01:59:19;;;;;;;10.38;9.15;;;;;;;20.39;100.00;98645.16;3480864;28;20095;-45
2021/07/05 02:01:00;;;;;;;14.40;9.90;;;;;;;20.39;100.00;98641.66;3481907;28;20137;-44
2021/07/05 02:02:42;;;;;;;13.13;9.35;;;;;;;20.39;100.00;98654.84;3479967;28;20061;-44
2021/07/05 02:04:24;;;;;;;11.77;9.00;;;;;;;20.39;100.00;98657.47;3480943;28;20076;-44
2021/07/05 02:06:06;;;;;;;12.20;9.77;;;;;;;20.38;100.00;98655.78;3470397;28;20050;-44
2021/07/05 02:07:49;;;;;;;11.70;9.75;;;;;;;20.37;100.00;98657.53;3473704;28;20083;-44
2021/07/05 02:09:31;;;;;;;;;;;;;;;20.38;100.00;98659.25;3483223;28;20049;-44
2021/07/05 02:11:12;;;;;;;13.38;9.55;;;;;;;20.37;100.00;98657.53;3473601;28;19971;-44
2021/07/05 02:12:55;;;;;;;12.25;9.63;;;;;;;20.38;100.00;98658.41;3468919;28;20083;-44
2021/07/05 02:14:36;;;;;;;12.93;10.05;;;;;;;20.38;100.00;98661.03;3479240;28;20138;-44
2021/07/05 02:16:18;;;;;;;11.88;10.07;;;;;;;20.38;100.00;98654.00;3478545;28;20084;-44
2021/07/05 02:17:59;;;;;;;12.25;9.65;;;;;;;20.38;100.00;98661.88;3481879;28;20048;-44
2021/07/05 02:19:41;;;;;;;11.15;10.00;;;;;;;20.40;100.00;98662.69;3476992;28;20513;-45
2021/07/05 02:21:22;;;;;;;13.73;10.38;;;;;;;20.40;100.00;98654.78;3470152;28;20076;-44
2021/07/05 02:23:06;;;;;;;13.50;9.88;;;;;;;20.40;100.00;98660.03;3473514;28;20538;-45
2021/07/05 02:24:48;;;;;;;12.80;9.75;;;;;;;20.41;100.00;98664.41;3469875;28;20057;-44
2021/07/05 02:26:29;;;;;;;13.00;9.20;;;;;;;20.43;100.00;98653.78;3479227;28;20087;-44
2021/07/05 02:28:13;;;;;;;14.25;9.65;;;;;;;20.44;100.00;98660.75;3478346;28;20136;-44
2021/07/05 02:29:54;;;;;;;15.15;9.40;;;;;;;20.45;100.00;98668.59;3482670;28;20053;-44
2021/07/05 02:31:36;;;;;;;10.10;9.07;;;;;;;20.46;100.00;98669.47;3478228;28;20045;-44
2021/07/05 02:33:20;;;;;;;11.13;9.10;;;;;;;20.47;100.00;98664.13;3482675;28;20102;-44
2021/07/05 02:35:02;;;;;;;14.05;9.65;;;;;;;20.47;100.00;98656.22;3472256;28;20081;-44
2021/07/05 02:36:44;;;;;;;13.77;9.98;;;;;;;20.47;100.00;98658.84;3470221;28;20091;-46
2021/07/05 02:38:26;;;;;;;16.67;9.25;;;;;;;20.50;100.00;98665.75;3482200;28;20139;-45
2021/07/05 02:40:11;;;;;;;14.83;9.83;;;;;;;20.49;100.00;98659.63;3478873;28;20195;-44
2021/07/05 02:41:52;;;;;;;14.65;9.98;;;;;;;20.51;100.00;98654.31;3468855;28;20850;-45
2021/07/05 02:43:34;;;;;;;13.65;10.15;;;;;;;20.50;100.00;98669.28;3471137;28;20107;-44
2021/07/05 02:45:18;;;;;;;11.60;9.90;;;;;;;20.51;100.00;98665.69;3468894;28;20054;-44
2021/07/05 02:47:00;;;;;;;11.18;8.85;;;;;;;20.51;100.00;98663.06;3477755;28;20076;-44
2021/07/05 02:48:41;;;;;;;11.25;9.48;;;;;;;20.52;100.00;98666.56;3480207;28;20052;-44
2021/07/05 02:50:23;;;;;;;12.98;9.48;;;;;;;20.54;100.00;98663.88;3480400;28;20087;-44
2021/07/05 02:52:05;;;;;;;11.32;9.90;;;;;;;20.55;100.00;98666.41;3477676;28;20051;-44
2021/07/05 02:53:51;;;;;;;12.35;9.43;;;;;;;20.57;100.00;98669.88;3469048;28;20060;-44
2021/07/05 02:55:33;;;;;;;11.88;9.45;;;;;;;20.58;100.00;98663.66;3472106;28;20537;-44
2021/07/05 02:57:29;;;;;;;11.82;8.93;;;;;;;20.61;100.00;98663.53;3469128;28;20056;-44
2021/07/05 02:59:10;;;;;;;10.50;9.38;;;;;;;20.63;100.00;98669.59;3479752;28;20080;-45
2021/07/05 03:00:53;;;;;;;15.23;9.32;;;;;;;20.65;100.00;98664.25;3477718;28;20076;-44
2021/07/05 03:02:34;;;;;;;14.40;9.82;;;;;;;20.67;100.00;98665.03;3468469;28;20045;-45
2021/07/05 03:04:16;;;;;;;12.40;9.63;;;;;;;20.70;100.00;98670.19;3474012;28;20123;-44
2021/07/05 03:05:58;;;;;;;12.48;9.45;;;;;;;20.75;100.00;98677.91;3482328;28;20087;-44
2021/07/05 03:07:39;;;;;;;13.88;10.15;;;;;;;20.76;100.00;98671.72;3472155;28;20077;-44
2021/07/05 03:09:21;;;;;;;13.75;9.60;;;;;;;20.79;100.00;98675.06;3468384;28;20088;-44
2021/07/05 03:11:03;;;;;;;10.88;9.35;;;;;;;20.80;100.00;98671.53;3470830;28;20610;-45
2021/07/05 03:12:45;;;;;;;10.95;9.80;;;;;;;20.84;100.00;98672.25;3470885;28;20369;-44
2021/07/05 03:14:27;;;;;;;12.63;9.52;;;;;;;20.85;99.95;98672.19;3468426;28;20514;-44
2021/07/05 03:16:08;;;;;;;12.18;9.98;;;;;;;20.87;100.00;98683.50;3470957;28;20084;-44
2021/07/05 03:17:50;;;;;;;12.43;9.65;;;;;;;20.89;99.90;98675.53;3471383;28;20088;-44
2021/07/05 03:19:31;;;;;;;11.77;9.80;;;;;;;20.93;99.47;98673.63;3470577;28;20076;-44
2021/07/05 03:21:13;;;;;;;13.02;10.73;;;;;;;20.93;99.60;98671.00;3469338;28;20514;-45
2021/07/05 03:22:55;;;;;;;14.48;9.82;;;;;;;20.97;99.41;98677.81;3470959;28;20053;-45
2021/07/05 03:24:37;;;;;;;14.95;10.57;;;;;;;20.99;98.94;98674.19;3470487;28;20049;-44
2021/07/05 03:26:19;;;;;;;12.82;10.35;;;;;;;21.03;98.87;98680.16;3468394;28;20083;-44
2021/07/05 03:28:01;;;;;;;14.25;11.10;;;;;;;21.07;99.13;98671.22;3472095;28;20072;-44
2021/07/05 03:29:42;;;;;;;14.07;9.88;;;;;;;21.11;98.37;98680.69;3469861;28;20083;-45
2021/07/05 03:31:23;;;;;;;13.10;10.43;;;;;;;21.16;98.41;98669.94;3479743;28;20192;-44
2021/07/05 03:33:06;;;;;;;14.30;10.80;;;;;;;21.21;98.49;98673.22;3482731;28;20071;-45
2021/07/05 03:34:48;;;;;;;13.33;10.23;;;;;;;21.25;97.81;98669.50;3481942;28;20107;-44
2021/07/05 03:36:29;;;;;;;14.65;10.90;;;;;;;21.29;97.72;98670.22;3480035;28;20706;-44
2021/07/05 03:38:13;;;;;;;12.45;10.73;;;;;;;21.33;97.88;98662.09;3484252;28;20080;-44
2021/07/05 03:39:55;;;;;;;12.95;10.73;;;;;;;21.38;97.38;98667.16;3480092;28;20045;-44
2021/07/05 03:41:36;;;;;;;16.65;10.20;;;;;;;21.43;97.36;98667.78;3484451;28;20500;-45
2021/07/05 03:43:18;;;;;;;13.10;10.70;;;;;;;21.48;97.18;98671.06;3480106;28;20084;-46
2021/07/05 03:45:00;;;;;;;15.30;10.55;;;;;;;21.51;96.33;98660.38;3482674;28;20045;-44
2021/07/05 03:46:42;;;;;;;11.82;10.63;;;;;;;21.55;96.58;98663.72;3471506;28;20087;-46
2021/07/05 03:48:23;;;;;;;14.30;11.38;;;;;;;21.58;96.51;98661.81;3472936;28;20418;-45
2021/07/05 03:50:07;;;;;;;14.32;10.93;;;;;;;21.62;96.43;98662.53;3470928;28;20077;-44
2021/07/05 03:51:48;;;;;;;14.52;11.93;;;;;;;21.66;95.76;98657.97;3473066;28;20494;-44
2021/07/05 03:53:29;;;;;;;16.70;11.30;;;;;;;21.71;96.47;98667.38;3468911;28;20053;-44
2021/07/05 03:55:16;;;;;;;15.25;10.85;;;;;;;21.76;96.02;98662.72;3480006;28;20526;-45
2021/07/05 03:56:57;;;;;;;15.50;12.70;;;;;;;21.80;95.58;98663.44;3482798;28;20079;-44
2021/07/05 03:58:39;;;;;;;14.80;12.30;;;;;;;21.86;95.74;98663.16;3471999;28;20081;-45
2021/07/05 04:00:23;;;;;;;19.25;12.05;;;;;;;21.90;95.22;98655.94;3472850;28;20123;-44
2021/07/05 04:02:05;;;;;;;15.73;12.00;;;;;;;21.92;94.90;98657.56;3470551;28;20061;-44
2021/07/05 04:03:47;;;;;;;16.00;11.93;;;;;;;21.94;94.10;98660.13;3477445;28;20090;-44
2021/07/05 04:05:29;;;;;;;15.68;11.25;;;;;;;21.97;94.11;98668.75;3484002;28;20077;-44
2021/07/05 04:07:10;;;;;;;14.82;11.45;;;;;;;21.98;93.90;98661.69;3479874;28;20510;-44
2021/07/05 04:08:52;;;;;;;14.30;11.15;;;;;;;22.01;94.15;98658.91;3482421;28;20144;-44
2021/07/05 04:10:36;;;;;;;15.10;11.95;;;;;;;22.02;94.48;98660.63;3471493;28;20085;-44
2021/07/05 04:12:20;;;;;;;15.50;11.82;;;;;;;22.06;93.79;98658.69;3474044;28;20080;-45
2021/07/05 04:14:01;;;;;;;14.90;11.52;;;;;;;22.09;92.54;98662.03;3472780;28;20415;-45
2021/07/05 04:15:42;;;;;;;14.40;11.60;;;;;;;22.12;92.58;98653.91;3479707;28;20146;-44
2021/07/05 04:17:24;;;;;;;13.10;11.07;;;;;;;22.19;92.32;98659.75;3483762;28;20076;-45
2021/07/05 04:19:05;;;;;;;13.68;11.32;;;;;;;22.27;92.07;98664.69;3472266;28;20053;-45
2021/07/05 04:20:47;;;;;;;17.42;11.82;;;;;;;22.36;92.16;98654.47;3471759;28;20479;-44
2021/07/05 04:22:28;;;;;;;13.50;11.82;;;;;;;22.45;92.34;98660.25;3483062;28;20213;-44
2021/07/05 04:24:10;;;;;;;18.08;11.75;;;;;;;22.52;91.14;98659.03;3478199;28;20516;-44
2021/07/05 04:25:52;;;;;;;15.43;11.48;;;;;;;22.61;91.66;98661.19;3484226;28;20076;-44
2021/07/05 04:27:34;;;;;;;14.00;11.20;;;;;;;22.63;90.27;98661.94;3475679;28;20180;-44
2021/07/05 04:29:15;;;;;;;13.30;10.50;;;;;;;22.68;90.23;98662.56;3471214;28;20084;-45
2021/07/05 04:30:57;;;;;;;11.63;9.50;;;;;;;22.71;89.81;98664.22;3480280;28;20049;-46
2021/07/05 04:32:38;;;;;;;13.38;10.75;;;;;;;22.77;91.30;98664.72;3480697;28;20139;-45
2021/07/05 04:34:20;;;;;;;17.00;10.90;;;;;;;22.84;89.78;98661.78;3482764;28;20094;-45
2021/07/05 04:36:02;;;;;;;13.20;10.80;;;;;;;22.91;94.45;98671.09;3479320;28;20044;-46
2021/07/05 04:37:44;;;;;;;16.77;10.52;;;;;;;22.90;88.63;98662.31;3470164;28;20060;-45
2021/07/05 04:39:26;;;;;;;13.95;10.93;;;;;;;22.94;88.54;98661.19;3477507;28;20052;-45
2021/07/05 04:41:08;;;;;;;14.35;10.45;;;;;;;22.98;90.09;98664.53;3481102;28;20072;-46
2021/07/05 04:42:50;;;;;;;12.45;10.70;;;;;;;23.00;88.67;98664.47;3480000;28;20094;-45
2021/07/05 04:44:31;;;;;;;13.13;9.77;;;;;;;23.04;87.15;98664.22;3481679;28;20506;-46
2021/07/05 04:46:16;;;;;;;11.45;10.32;;;;;;;23.11;87.57;98668.25;3470914;28;20088;-46
2021/07/05 04:47:59;;;;;;;13.73;10.15;;;;;;;23.19;86.61;98673.13;3474163;28;20052;-46
2021/07/05 04:49:41;;;;;;;12.52;10.20;;;;;;;23.23;85.66;98674.66;3483784;28;20136;-45
2021/07/05 04:51:23;;;;;;;13.02;10.20;;;;;;;23.28;85.31;98679.72;3471652;28;20045;-45
2021/07/05 04:53:05;;;;;;;15.02;10.85;;;;;;;23.31;85.01;98674.28;3468756;28;20096;-45
2021/07/05 04:54:47;;;;;;;14.35;10.23;;;;;;;23.30;84.74;98670.75;3482341;28;20088;-47
2021/07/05 04:56:29;;;;;;;14.48;10.57;;;;;;;23.36;84.84;98676.66;3479221;28;20077;-45
2021/07/05 04:58:10;;;;;;;15.40;10.50;;;;;;;23.42;85.59;98674.53;3483614;28;20482;-45
2021/07/05 04:59:51;;;;;;;12.30;10.02;;;;;;;23.47;84.71;98672.50;3474295;28;20065;-45
2021/07/05 05:01:34;;;;;;;13.88;10.25;;;;;;;23.54;84.14;98673.00;3470904;28;20553;-45
2021/07/05 05:03:16;;;;;;;15.05;10.82;;;;;;;23.58;84.59;98669.25;3480984;28;20053;-45
2021/07/05 05:04:57;;;;;;;15.70;10.18;;;;;;;23.65;87.23;98675.91;3481079;28;20045;-45
2021/07/05 05:06:39;;;;;;;12.90;10.63;;;;;;;23.65;82.60;98669.75;3469752;28;20130;-45
2021/07/05 05:08:20;;;;;;;15.43;10.30;;;;;;;23.69;83.40;98668.63;3472124;28;20077;-46
2021/07/05 05:10:02;;;;;;;11.95;9.35;;;;;;;23.77;83.27;98668.22;3470312;28;20061;-45
2021/07/05 05:11:44;;;;;;;13.32;10.13;;;;;;;23.83;82.35;98665.22;3472557;28;20601;-45
2021/07/05 05:13:28;;;;;;;10.48;9.38;;;;;;;23.89;82.78;98663.06;3469442;28;20081;-45
2021/07/05 05:15:10;;;;;;;12.27;9.63;;;;;;;23.95;81.90;98658.38;3480765;28;20055;-45
2021/07/05 05:16:52;;;;;;;10.65;9.57;;;;;;;24.06;82.51;98658.63;3477846;28;20073;-45
2021/07/05 05:18:33;;;;;;;12.27;10.20;;;;;;;24.17;82.39;98658.88;3469817;28;20065;-45
2021/07/05 05:20:16;;;;;;;15.20;10.48;;;;;;;24.27;81.90;98652.06;3472068;28;20640;-45
2021/07/05 05:21:57;;;;;;;11.47;10.27;;;;;;;24.38;81.40;98661.19;3470025;28;20065;-45
2021/07/05 05:23:40;;;;;;;10.93;9.77;;;;;;;24.46;80.96;98659.78;3477335;28;20056;-45
2021/07/05 05:25:21;;;;;;;18.80;10.38;;;;;;;24.52;79.59;98663.88;3480231;28;20087;-45
2021/07/05 05:27:03;;;;;;;11.27;9.68;;;;;;;24.59;79.75;98661.72;3481181;28;20056;-45
2021/07/05 05:28:45;;;;;;;16.40;10.02;;;;;;;24.65;79.75;98659.53;3480133;28;20084;-44
2021/07/05 05:30:27;;;;;;;15.13;9.77;;;;;;;24.73;79.63;98655.56;3469550;28;20136;-45
2021/07/05 05:32:09;;;;;;;12.68;10.48;;;;;;;24.80;80.14;98665.75;3473036;28;20084;-45
2021/07/05 05:33:50;;;;;;;14.52;10.43;;;;;;;24.89;80.12;98659.00;3469816;28;20106;-44
2021/07/05 05:35:32;;;;;;;11.85;10.23;;;;;;;24.94;78.14;98662.25;3478073;28;20053;-45
2021/07/05 05:37:13;;;;;;;12.77;9.85;;;;;;;25.00;78.76;98666.31;3481306;28;20076;-44
2021/07/05 05:38:55;;;;;;;14.40;9.68;;;;;;;25.02;78.51;98664.44;3482930;28;20473;-45
2021/07/05 05:40:36;;;;;;;15.40;10.43;;;;;;;25.08;79.37;98668.50;3478910;28;20112;-45
2021/07/05 05:42:18;;;;;;;15.85;10.98;;;;;;;25.10;77.54;98669.25;3469532;28;20131;-44
2021/07/05 05:44:00;;;;;;;11.52;10.18;;;;;;;25.16;78.12;98676.81;3475230;28;20137;-46
2021/07/05 05:45:42;;;;;;;14.32;11.13;;;;;;;25.16;77.97;98677.69;3483317;28;20053;-44
2021/07/05 05:47:23;;;;;;;13.90;10.75;;;;;;;25.16;80.32;98671.53;3477468;28;20433;-46
2021/07/05 05:49:05;;;;;;;13.90;9.95;;;;;;;25.21;80.71;98677.41;3481266;28;20505;-44
2021/07/05 05:50:46;;;;;;;13.35;10.43;;;;;;;25.21;77.30;98669.44;3471184;28;20077;-45
2021/07/05 05:52:28;;;;;;;16.38;11.10;;;;;;;25.24;77.57;98661.28;3470349;28;20568;-45
2021/07/05 05:54:10;;;;;;;20.55;10.77;;;;;;;25.27;77.84;98673.53;3469486;28;20056;-44
2021/07/05 05:55:52;;;;;;;13.90;10.30;;;;;;;25.28;78.22;98670.75;3475461;28;20045;-45
2021/07/05 05:57:36;;;;;;;12.38;10.73;;;;;;;25.28;76.12;98669.91;3482955;28;20282;-45
2021/07/05 05:59:18;;;;;;;12.00;10.18;;;;;;;25.33;76.61;98673.97;3477999;28;20167;-45
2021/07/05 06:01:00;;;;;;;13.52;10.40;;;;;;;25.39;76.02;98662.13;3482222;28;20075;-45
2021/07/05 06:02:41;;;;;;;14.75;11.07;;;;;;;25.51;78.69;98663.13;3480926;28;20420;-44
2021/07/05 06:04:23;;;;;;;12.10;10.65;;;;;;;25.63;76.57;98657.06;3478309;28;20041;-46
2021/07/05 06:06:05;;;;;;;14.45;10.88;;;;;;;25.73;75.02;98657.34;3482967;28;20533;-46
2021/07/05 06:07:50;;;;;;;16.73;10.65;;;;;;;25.83;75.05;98649.59;3478225;28;20076;-45
2021/07/05 06:09:31;;;;;;;11.60;9.80;;;;;;;25.89;74.98;98655.38;3482707;28;20052;-45
2021/07/05 06:11:13;;;;;;;12.98;10.38;;;;;;;25.97;75.37;98650.41;3478680;28;20133;-45
2021/07/05 06:12:56;;;;;;;12.98;10.25;;;;;;;26.06;75.17;98648.97;3480821;28;20546;-45
2021/07/05 06:14:38;;;;;;;13.05;10.88;;;;;;;26.11;73.97;98644.19;3482396;28;20049;-45
2021/07/05 06:16:19;;;;;;;12.95;10.63;;;;;;;26.11;72.86;98643.31;3477167;28;20080;-46
2021/07/05 06:18:01;;;;;;;11.88;10.57;;;;;;;26.13;72.48;98646.72;3469085;28;20061;-45
2021/07/05 06:19:42;;;;;;;13.15;10.63;;;;;;;26.17;73.17;98650.91;3475817;28;20525;-45
2021/07/05 06:21:26;;;;;;;12.43;10.70;;;;;;;26.23;72.93;98652.28;3482181;28;20079;-45
2021/07/05 06:23:17;;;;;;;13.30;10.27;;;;;;;26.29;72.01;98650.09;3481000;28;20072;-44
2021/07/05 06:24:58;;;;;;;12.82;9.82;;;;;;;26.37;71.35;98657.56;3478638;28;20087;-45
2021/07/05 06:26:40;;;;;;;12.15;10.23;;;;;;;26.50;75.71;98663.75;3481619;28;20126;-45
2021/07/05 06:28:24;;;;;;;12.80;10.25;;;;;;;26.63;72.05;98662.91;3478249;28;20045;-46
2021/07/05 06:30:06;;;;;;;11.73;9.32;;;;;;;26.77;73.39;98668.13;3482827;28;20077;-45
2021/07/05 06:31:48;;;;;;;10.88;9.80;;;;;;;26.88;69.86;98659.41;3478203;28;20142;-45
2021/07/05 06:33:30;;;;;;;14.55;9.10;;;;;;;27.04;70.93;98667.19;3480607;28;20053;-45
2021/07/05 06:35:13;;;;;;;11.65;9.48;;;;;;;27.15;69.54;98667.28;3471324;28;20085;-45
2021/07/05 06:36:54;;;;;;;12.30;10.05;;;;;;;27.21;68.24;98661.53;3470943;28;20458;-45
2021/07/05 06:38:35;;;;;;;13.52;10.00;;;;;;;27.29;67.94;98658.31;3482306;28;20174;-46
2021/07/05 06:40:17;;;;;;;10.68;9.35;;;;;;;27.37;68.30;98666.63;3478040;28;20049;-45
2021/07/05 06:41:58;;;;;;;14.38;9.55;;;;;;;27.44;67.80;98667.88;3482631;28;20076;-46
2021/07/05 06:43:40;;;;;;;12.60;9.65;;;;;;;27.52;68.16;98655.81;3480045;28;20492;-45
2021/07/05 06:45:23;;;;;;;15.57;10.38;;;;;;;27.60;67.25;98664.13;3480676;28;20475;-45
2021/07/05 06:47:04;;;;;;;16.02;10.68;;;;;;;27.66;69.00;98653.88;3471091;28;20525;-45
2021/07/05 06:48:46;;;;;;;14.63;10.05;;;;;;;27.73;68.40;98648.09;3471244;28;20521;-44
2021/07/05 06:50:27;;;;;;;15.85;10.43;;;;;;;27.82;71.93;98650.91;3468771;28;20084;-45
2021/07/05 06:52:09;;;;;;;15.25;11.43;;;;;;;27.91;68.41;98652.06;3473255;28;20048;-46
2021/07/05 06:53:51;;;;;;;14.38;10.30;;;;;;;27.96;67.71;98652.56;3468645;28;20088;-45
2021/07/05 06:55:32;;;;;;;18.05;10.25;;;;;;;27.95;66.81;98653.56;3475966;28;20080;-45
2021/07/05 06:59:13;;;;;;;13.07;9.88;;;;;;;27.91;66.67;98648.56;3468535;28;20049;-45
2021/07/05 07:00:55;;;;;;;14.85;11.10;;;;;;;27.95;67.32;98647.34;3472926;28;20084;-45
2021/07/05 07:02:37;;;;;;;14.15;10.05;;;;;;;28.04;67.03;98642.19;3481744;28;20087;-47
2021/07/05 07:04:19;;;;;;;13.05;10.02;;;;;;;28.17;67.50;98649.28;3471918;28;20057;-44
2021/07/05 07:06:00;;;;;;;12.85;10.73;;;;;;;28.24;66.34;98658.50;3469522;28;20072;-45
2021/07/05 07:07:42;;;;;;;14.73;9.50;;;;;;;28.34;65.50;98643.53;3478964;28;20102;-45
2021/07/05 07:09:24;;;;;;;11.95;10.20;;;;;;;28.38;64.92;98637.00;3478624;28;20045;-45
2021/07/05 07:11:05;;;;;;;10.85;9.27;;;;;;;28.50;66.34;98639.72;3481447;28;20525;-45
2021/07/05 07:12:48;;;;;;;11.57;9.00;;;;;;;28.51;65.52;98641.41;3477266;28;20757;-43
2021/07/05 07:14:39;;;;;;;20.40;10.48;;;;;;;28.45;64.89;98648.06;3468823;28;20049;-45
2021/07/05 07:16:22;;;;;;;13.30;9.85;;;;;;;28.35;64.23;98645.22;3477371;28;20144;-45
2021/07/05 07:18:06;;;;;;;14.05;9.20;;;;;;;28.28;64.26;98660.00;3480345;28;20139;-46
2021/07/05 07:19:47;;;;;;;12.63;8.85;;;;;;;28.22;64.64;98650.63;3479803;28;20055;-45
2021/07/05 07:21:29;;;;;;;11.57;9.02;;;;;;;28.18;64.98;98659.81;3478064;28;20132;-45
2021/07/05 07:23:10;;;;;;;13.10;10.25;;;;;;;28.21;66.30;98659.59;3468318;28;20533;-45
2021/07/05 07:24:51;;;;;;;12.80;9.93;;;;;;;28.23;65.22;98664.78;3474292;28;20055;-45
2021/07/05 07:26:32;;;;;;;13.15;9.68;;;;;;;28.31;65.69;98658.94;3482032;28;20493;-46
2021/07/05 07:28:14;;;;;;;11.05;8.95;;;;;;;28.38;65.71;98655.66;3477623;28;20073;-45
2021/07/05 07:29:56;;;;;;;14.77;8.73;;;;;;;28.45;64.44;98664.06;3480361;28;20048;-46
2021/07/05 07:31:37;;;;;;;12.70;9.77;;;;;;;28.51;64.44;98655.56;3479667;28;20396;-45
2021/07/05 07:33:19;;;;;;;11.57;8.95;;;;;;;28.59;64.96;98657.69;3477702;28;20053;-45
2021/07/05 07:35:00;;;;;;;11.48;8.65;;;;;;;28.63;64.85;98659.13;3482229;28;20088;-45
2021/07/05 07:36:42;;;;;;;11.95;8.77;;;;;;;28.66;63.80;98664.25;3475555;28;20164;-45
2021/07/05 07:38:24;;;;;;;11.48;9.07;;;;;;;28.71;63.50;98658.56;3468267;28;20069;-45
2021/07/05 07:40:14;;;;;;;8.55;7.22;;;;;;;28.79;65.33;98661.47;3472036;28;20467;-45
2021/07/05 07:41:56;;;;;;;12.63;9.23;;;;;;;28.80;63.93;98658.69;3470089;28;20522;-45
2021/07/05 07:43:37;;;;;;;8.45;7.65;;;;;;;28.84;63.30;98658.44;3480152;28;20061;-44
2021/07/05 07:45:20;;;;;;;9.43;7.35;;;;;;;28.85;62.96;98657.44;3477778;28;20048;-46
2021/07/05 07:47:03;;;;;;;10.32;7.72;;;;;;;28.93;64.06;98660.41;3468354;28;20053;-44
2021/07/05 07:48:44;;;;;;;10.55;7.97;;;;;;;28.94;61.41;98656.78;3475346;28;20132;-45
2021/07/05 07:50:25;;;;;;;9.30;7.50;;;;;;;28.96;61.89;98663.69;3481777;28;20137;-45
2021/07/05 07:52:07;;;;;;;8.80;7.63;;;;;;;28.95;61.61;98658.47;3470812;28;20143;-46